Time;durP1;ratioP1;P1;durP2;ratioP2;P2;SDS_P1;SDS_P2;PMS_P1;PMS_P2;Temp;Humidity;BMP_temperature;BMP_pressure;BME280_temperature;BME280_humidity;BME280_pressure;Samples;Min_cycle;Max_cycle;Signal;HPM_P1;HPM_P2
2022/01/27 00:05:28;;;;;;;189.38;100.35;;;;;;;8.54;100.00;98926.59;4778661;29;20611;-66
2022/01/27 00:08:22;;;;;;;188.80;99.53;;;;;;;8.51;100.00;98934.34;4780376;29;20051;-65
2022/01/27 00:11:10;;;;;;;171.13;94.22;;;;;;;8.52;100.00;98938.63;4786930;29;20083;-66
2022/01/27 00:14:01;;;;;;;175.95;93.32;;;;;;;8.49;100.00;98949.78;4771436;29;20142;-65
2022/01/27 00:16:53;;;;;;;161.98;87.78;;;;;;;8.42;100.00;98949.03;4784234;29;20095;-66
2022/01/27 00:19:42;;;;;;;171.55;91.30;;;;;;;8.35;100.00;98950.03;4777922;29;20072;-66
2022/01/27 00:22:27;;;;;;;155.18;86.15;;;;;;;8.31;100.00;98948.34;4779621;29;20050;-67
2022/01/27 00:25:22;;;;;;;163.55;88.90;;;;;;;8.29;100.00;98949.25;4776332;29;20175;-66
2022/01/27 00:27:58;;;;;;;168.43;87.97;;;;;;;8.34;100.00;98952.59;4779274;29;20639;-66
2022/01/27 00:30:46;;;;;;;153.20;86.47;;;;;;;8.20;100.00;98951.97;4772948;29;20787;-66
2022/01/27 00:33:28;;;;;;;160.63;87.78;;;;;;;8.28;100.00;98955.25;4772102;29;20062;-66
2022/01/27 00:36:17;;;;;;;161.65;86.93;;;;;;;8.22;100.00;98961.31;4762430;29;20055;-66
2022/01/27 00:39:00;;;;;;;174.25;89.25;;;;;;;8.13;100.00;98955.50;4775135;29;20059;-65
2022/01/27 00:41:52;;;;;;;157.68;87.05;;;;;;;8.11;100.00;98959.78;4748951;29;21072;-67
2022/01/27 00:44:34;;;;;;;154.77;86.32;;;;;;;8.05;100.00;98963.31;4779903;29;20511;-67
2022/01/27 00:47:28;;;;;;;163.63;86.65;;;;;;;7.98;100.00;98967.66;4780081;29;20087;-67
2022/01/27 00:50:05;;;;;;;154.13;87.35;;;;;;;8.11;100.00;98962.38;4783032;29;20077;-66
2022/01/27 00:52:56;;;;;;;159.00;86.47;;;;;;;8.07;100.00;98967.53;4784316;30;20067;-66
2022/01/27 00:55:41;;;;;;;159.05;86.57;;;;;;;8.05;100.00;98971.00;4782014;29;20051;-66
2022/01/27 00:58:51;;;;;;;155.18;85.95;;;;;;;7.96;100.00;98974.56;4782458;29;20082;-67
2022/01/27 01:01:39;;;;;;;;;;;;;;;7.98;100.00;98983.06;4782584;29;20055;-66
2022/01/27 01:04:33;;;;;;;142.45;83.32;;;;;;;8.00;100.00;98991.59;4778396;30;20040;-64
2022/01/27 01:07:16;;;;;;;160.40;85.95;;;;;;;7.92;100.00;98993.41;4782976;29;20049;-65
2022/01/27 01:15:48;;;;;;;148.02;84.97;;;;;;;8.01;100.00;99000.97;4779626;29;20047;-65
2022/01/27 01:18:47;;;;;;;148.57;82.78;;;;;;;8.04;100.00;99008.66;4780838;29;20066;-64
2022/01/27 01:31:10;;;;;;;144.48;79.78;;;;;;;7.80;100.00;99026.94;4773173;29;20085;-66
2022/01/27 01:37:21;;;;;;;170.93;86.60;;;;;;;7.72;100.00;99028.75;4746233;29;20055;-66
2022/01/27 01:40:11;;;;;;;157.27;86.65;;;;;;;7.74;100.00;99029.59;4778143;29;20055;-66
2022/01/27 01:43:00;;;;;;;162.30;88.35;;;;;;;7.67;100.00;99030.50;4778459;29;20132;-66
2022/01/27 01:45:48;;;;;;;155.10;87.97;;;;;;;7.54;100.00;99034.09;4778713;29;20150;-65
2022/01/27 01:48:42;;;;;;;167.48;93.32;;;;;;;7.61;100.00;99035.72;4776506;30;20080;-65
2022/01/27 01:51:25;;;;;;;203.05;103.93;;;;;;;7.49;100.00;99041.03;4777543;29;20058;-66
2022/01/27 01:54:23;;;;;;;202.90;106.70;;;;;;;7.46;100.00;99044.44;4766914;29;20059;-66
2022/01/27 01:56:59;;;;;;;233.57;119.30;;;;;;;7.41;100.00;99050.50;4779147;29;20051;-66
2022/01/27 01:59:49;;;;;;;;;;;;;;;7.42;100.00;99054.78;4780702;29;20059;-65
2022/01/27 02:02:45;;;;;;;251.88;133.00;;;;;;;7.39;100.00;99062.47;4778971;29;19930;-66
2022/01/27 02:05:33;;;;;;;272.85;143.82;;;;;;;7.43;100.00;99071.81;4760062;30;20143;-66
2022/01/27 02:20:14;;;;;;;246.52;126.88;;;;;;;7.72;100.00;99090.28;4778002;29;20209;-65
2022/01/27 02:22:50;;;;;;;243.15;125.88;;;;;;;7.81;100.00;99097.88;4781176;29;20051;-65
2022/01/27 02:25:47;;;;;;;252.85;125.63;;;;;;;7.79;100.00;99101.31;4779565;30;20166;-66
2022/01/27 02:28:23;;;;;;;241.95;125.50;;;;;;;7.71;100.00;99095.44;4777962;29;20064;-65
2022/01/27 02:31:11;;;;;;;248.25;124.82;;;;;;;7.67;100.00;99102.31;4780498;29;20509;-66
2022/01/27 02:34:00;;;;;;;244.40;123.35;;;;;;;7.66;100.00;99103.19;4776070;30;20071;-66
2022/01/27 02:36:50;;;;;;;231.13;124.78;;;;;;;7.70;100.00;99107.41;4778015;29;20055;-66
2022/01/27 02:39:40;;;;;;;222.63;117.10;;;;;;;7.79;100.00;99109.00;4777284;29;20146;-65
2022/01/27 02:42:40;;;;;;;217.73;117.15;;;;;;;7.86;100.00;99116.63;4776982;29;20154;-66
2022/01/27 02:45:49;;;;;;;206.98;109.28;;;;;;;8.01;100.00;99124.13;4776821;29;20055;-65
2022/01/27 02:48:42;;;;;;;211.63;110.68;;;;;;;8.12;100.00;99134.25;4780959;30;20212;-66
2022/01/27 02:51:41;;;;;;;205.60;108.00;;;;;;;8.17;100.00;99135.03;4774633;30;20051;-66
2022/01/27 02:54:25;;;;;;;205.50;110.77;;;;;;;8.21;100.00;99136.69;4775277;29;20075;-66
2022/01/27 02:57:36;;;;;;;200.55;107.57;;;;;;;8.17;100.00;99132.47;4775593;29;20053;-66
2022/01/27 03:00:22;;;;;;;193.93;108.13;;;;;;;8.16;100.00;99140.19;4780205;29;20086;-66
2022/01/27 03:03:15;;;;;;;196.32;107.05;;;;;;;8.22;100.00;99142.69;4780308;29;20066;-66
2022/01/27 03:06:04;;;;;;;207.82;109.95;;;;;;;8.34;100.00;99155.38;4782509;29;20120;-66
2022/01/27 03:08:49;;;;;;;202.98;110.82;;;;;;;8.43;100.00;99161.25;4778198;29;20051;-66
2022/01/27 03:11:38;;;;;;;218.70;115.50;;;;;;;8.57;100.00;99166.16;4781836;29;20089;-66
2022/01/27 03:14:23;;;;;;;208.23;111.78;;;;;;;8.71;100.00;99161.69;4779166;29;20086;-66
2022/01/27 03:17:12;;;;;;;235.02;124.47;;;;;;;8.89;100.00;99165.69;4749861;30;20059;-66
2022/01/27 03:20:08;;;;;;;233.02;124.13;;;;;;;9.08;100.00;99176.53;4776721;30;20067;-65
2022/01/27 03:22:44;;;;;;;241.70;126.18;;;;;;;9.39;100.00;99174.31;4777466;29;20078;-66
2022/01/27 03:25:41;;;;;;;226.77;123.33;;;;;;;10.08;100.00;99173.84;4779374;30;20051;-66
2022/01/27 03:28:19;;;;;;;209.57;118.63;;;;;;;10.66;100.00;99181.22;4780116;29;20142;-66
2022/01/27 03:31:14;;;;;;;221.38;116.05;;;;;;;11.23;100.00;99180.75;4778048;30;20051;-66
2022/01/27 03:33:55;;;;;;;191.55;108.13;;;;;;;11.74;100.00;99184.59;4785509;29;20055;-66
2022/01/27 03:36:50;;;;;;;183.73;103.72;;;;;;;12.18;100.00;99180.81;4781882;30;20053;-66
2022/01/27 03:39:27;;;;;;;179.90;96.82;;;;;;;12.62;100.00;99191.56;4771204;29;20789;-66
2022/01/27 03:42:22;;;;;;;166.43;87.93;;;;;;;13.07;100.00;99203.97;4779704;29;20450;-65
2022/01/27 03:44:57;;;;;;;166.70;85.55;;;;;;;13.53;100.00;99205.94;4781145;29;20051;-66
2022/01/27 03:47:54;;;;;;;141.40;82.05;;;;;;;14.06;100.00;99210.09;4781193;30;20081;-68
2022/01/27 03:50:35;;;;;;;142.60;80.43;;;;;;;14.28;100.00;99220.56;4778115;29;20165;-67
2022/01/27 03:53:30;;;;;;;140.68;79.35;;;;;;;14.52;100.00;99229.22;4779918;29;20047;-67
2022/01/27 03:56:18;;;;;;;132.93;76.18;;;;;;;14.95;100.00;99223.22;4775922;29;20043;-68
2022/01/27 03:59:13;;;;;;;138.98;74.82;;;;;;;15.37;100.00;99238.00;4771363;30;20488;-66
2022/01/27 04:01:49;;;;;;;124.45;74.57;;;;;;;15.58;100.00;99239.75;4779326;29;20109;-66
2022/01/27 04:04:38;;;;;;;116.82;73.15;;;;;;;16.01;97.77;99249.19;4778946;29;20065;-66
2022/01/27 04:07:19;;;;;;;127.10;72.40;;;;;;;16.24;96.96;99245.59;4777790;29;20047;-66
2022/01/27 04:10:08;;;;;;;121.65;69.32;;;;;;;16.17;92.54;99259.78;4777446;29;20051;-65
2022/01/27 04:12:50;;;;;;;127.15;73.57;;;;;;;16.73;90.55;99259.88;4780388;29;20059;-65
2022/01/27 04:15:42;;;;;;;117.00;72.07;;;;;;;16.94;90.89;99258.88;4778639;29;20051;-65
2022/01/27 04:18:34;;;;;;;118.70;70.15;;;;;;;17.04;88.93;99267.97;4773307;29;20137;-66
2022/01/27 04:21:24;;;;;;;128.57;68.40;;;;;;;17.02;83.10;99268.94;4778868;29;20139;-65
2022/01/27 04:24:11;;;;;;;130.10;72.00;;;;;;;17.07;81.16;99275.63;4747727;30;20077;-65
2022/01/27 04:27:06;;;;;;;121.00;73.55;;;;;;;17.44;81.05;99274.72;4775008;29;20055;-65
2022/01/27 04:29:48;;;;;;;116.00;68.78;;;;;;;17.18;82.85;99270.75;4778697;29;20055;-66
2022/01/27 04:32:44;;;;;;;105.50;65.22;;;;;;;17.17;79.76;99282.06;4776889;29;20054;-65
2022/01/27 04:35:38;;;;;;;112.40;64.07;;;;;;;17.62;73.36;99290.41;4762888;30;20070;-65
2022/01/27 04:38:24;;;;;;;104.97;61.47;;;;;;;17.92;72.21;99292.34;4779686;29;20617;-65
2022/01/27 04:41:27;;;;;;;100.05;57.10;;;;;;;18.00;67.97;99293.72;4779298;29;20066;-65
2022/01/27 04:44:15;;;;;;;98.28;54.28;;;;;;;18.29;67.58;99293.06;4778952;29;20059;-64
2022/01/27 04:47:12;;;;;;;96.55;57.13;;;;;;;17.80;67.51;99303.34;4776907;29;20063;-65
2022/01/27 04:49:56;;;;;;;100.82;57.50;;;;;;;17.60;68.33;99295.66;4781555;29;20090;-64
2022/01/27 04:52:41;;;;;;;90.15;56.92;;;;;;;18.11;66.44;99307.06;4777925;29;20336;-65
2022/01/27 04:55:35;;;;;;;110.22;58.33;;;;;;;17.93;62.06;99304.47;4777891;29;20078;-65
2022/01/27 04:58:31;;;;;;;103.72;57.10;;;;;;;18.23;65.76;99298.59;4775473;29;20079;-65
2022/01/27 05:01:16;;;;;;;106.80;56.55;;;;;;;18.04;63.08;99298.69;4778742;29;20051;-65
2022/01/27 05:04:11;;;;;;;100.30;56.15;;;;;;;18.07;64.11;99303.75;4764906;29;20067;-66
2022/01/27 05:06:56;;;;;;;102.13;54.67;;;;;;;18.57;62.59;99306.41;4761451;29;20140;-66
2022/01/27 05:09:57;;;;;;;91.60;52.45;;;;;;;18.45;63.25;99301.78;4777019;29;20066;-66
2022/01/27 05:12:45;;;;;;;87.00;51.15;;;;;;;18.27;62.35;99294.94;4774411;29;20087;-65
2022/01/27 05:15:34;;;;;;;77.90;47.47;;;;;;;18.25;60.48;99310.66;4780188;29;20883;-65
2022/01/27 05:18:15;;;;;;;86.47;45.67;;;;;;;18.42;61.86;99308.94;4775426;29;20055;-65
2022/01/27 05:21:05;;;;;;;95.82;47.78;;;;;;;18.16;60.46;99307.66;4796475;29;20065;-64
2022/01/27 05:23:48;;;;;;;87.32;46.03;;;;;;;18.21;61.99;99308.25;4788968;29;20462;-64
2022/01/27 05:26:39;;;;;;;78.35;45.35;;;;;;;18.18;61.43;99305.84;4781127;29;20550;-64
2022/01/27 05:29:22;;;;;;;74.57;41.47;;;;;;;18.50;58.98;99305.03;4781465;29;20059;-65
2022/01/27 05:32:16;;;;;;;83.55;46.97;;;;;;;18.28;58.98;99302.66;4783372;29;20142;-64
2022/01/27 05:34:52;;;;;;;83.53;49.33;;;;;;;18.16;59.72;99298.06;4780002;29;20143;-65
2022/01/27 05:37:40;;;;;;;102.57;53.35;;;;;;;18.20;61.91;99290.94;4796114;29;20043;-65
2022/01/27 05:40:22;;;;;;;92.00;53.47;;;;;;;18.18;61.39;99296.25;4799096;29;20046;-65
2022/01/27 05:43:18;;;;;;;96.95;53.85;;;;;;;18.48;62.95;99296.41;4792259;29;20388;-64
2022/01/27 05:45:54;;;;;;;100.65;52.22;;;;;;;18.72;60.02;99303.00;4795051;29;20074;-65
2022/01/27 05:48:49;;;;;;;94.93;52.83;;;;;;;18.50;60.04;99299.78;4797619;29;20395;-65
2022/01/27 05:51:25;;;;;;;107.03;51.85;;;;;;;18.40;59.15;99293.38;4782088;29;20121;-65
2022/01/27 05:54:18;;;;;;;102.60;54.58;;;;;;;18.65;58.56;99291.19;4787429;29;20591;-65
2022/01/27 05:57:01;;;;;;;110.53;56.42;;;;;;;18.92;56.75;99301.06;4781131;29;20043;-65
2022/01/27 05:59:56;;;;;;;101.80;52.43;;;;;;;18.78;55.24;99300.97;4779223;29;20051;-64
2022/01/27 06:02:38;;;;;;;97.40;48.45;;;;;;;18.44;57.10;99296.66;4763868;30;20299;-64
2022/01/27 06:05:33;;;;;;;96.40;50.25;;;;;;;18.68;61.84;99285.78;4777268;29;20051;-65
2022/01/27 06:08:09;;;;;;;96.18;48.65;;;;;;;18.76;57.14;99284.56;4778502;29;20055;-65
2022/01/27 06:11:04;;;;;;;79.30;44.85;;;;;;;18.36;55.29;99289.22;4760779;30;20079;-64
2022/01/27 06:13:40;;;;;;;91.00;47.30;;;;;;;18.14;54.86;99283.41;4776229;29;20216;-65
2022/01/27 06:16:29;;;;;;;85.80;47.17;;;;;;;18.39;57.42;99280.41;4776533;29;20051;-65
2022/01/27 06:19:11;;;;;;;84.05;48.17;;;;;;;18.64;59.11;99276.44;4772997;29;20618;-65
2022/01/27 06:22:00;;;;;;;94.35;49.78;;;;;;;18.72;56.83;99274.28;4779098;29;20553;-64
2022/01/27 06:24:44;;;;;;;100.43;53.05;;;;;;;19.18;58.92;99271.75;4774931;29;20169;-64
2022/01/27 06:27:53;;;;;;;97.78;52.17;;;;;;;18.49;59.36;99272.00;4776288;29;20074;-64
2022/01/27 06:30:35;;;;;;;93.95;49.45;;;;;;;18.44;58.15;99258.34;4781002;29;20056;-65
2022/01/27 06:33:25;;;;;;;95.88;48.88;;;;;;;18.68;57.26;99264.91;4783792;29;20252;-63
2022/01/27 06:36:07;;;;;;;89.60;47.47;;;;;;;18.76;58.33;99258.47;4780070;29;20499;-64
2022/01/27 06:39:04;;;;;;;88.85;47.00;;;;;;;18.78;55.10;99261.81;4764635;29;20056;-65
2022/01/27 06:41:42;;;;;;;92.78;48.90;;;;;;;18.90;58.50;99255.94;4778218;29;20086;-62
2022/01/27 06:44:34;;;;;;;83.25;45.50;;;;;;;18.60;52.71;99261.88;4780194;29;20054;-65
2022/01/27 06:47:20;;;;;;;94.60;45.40;;;;;;;18.79;57.37;99250.44;4779944;29;20348;-66
2022/01/27 06:50:07;;;;;;;86.55;44.13;;;;;;;18.68;56.35;99249.25;4779781;29;20065;-64
2022/01/27 06:52:49;;;;;;;90.03;44.83;;;;;;;19.08;56.43;99245.28;4783033;29;20063;-65
2022/01/27 06:55:38;;;;;;;87.95;44.22;;;;;;;18.89;56.53;99242.03;4773592;29;20098;-64
2022/01/27 06:58:21;;;;;;;85.22;41.97;;;;;;;18.97;55.31;99246.84;4779788;29;20132;-64
2022/01/27 07:01:10;;;;;;;85.15;44.13;;;;;;;18.95;58.82;99233.84;4779215;29;20047;-64
2022/01/27 07:03:52;;;;;;;83.75;40.40;;;;;;;18.88;56.25;99234.28;4782020;29;20639;-64
2022/01/27 07:06:41;;;;;;;86.85;43.00;;;;;;;19.07;57.77;99233.19;4780028;29;20135;-64
2022/01/27 07:09:23;;;;;;;78.47;40.67;;;;;;;18.87;56.72;99222.16;4780287;29;20063;-64
2022/01/27 07:12:06;;;;;;;84.10;47.17;;;;;;;19.32;58.57;99208.28;4777907;29;20074;-64
2022/01/27 07:15:10;;;;;;;79.15;42.08;;;;;;;19.23;55.62;99211.44;4782775;29;20089;-65
2022/01/27 07:17:58;;;;;;;82.50;41.55;;;;;;;19.04;54.59;99212.47;4786181;29;20062;-67
2022/01/27 07:20:39;;;;;;;83.45;45.38;;;;;;;19.03;54.76;99202.09;4787093;29;20669;-64
2022/01/27 07:23:27;;;;;;;79.70;43.83;;;;;;;18.85;54.57;99198.72;4778282;29;20054;-65
2022/01/27 07:26:09;;;;;;;90.65;45.55;;;;;;;19.13;54.43;99200.66;4778668;29;20055;-62
2022/01/27 07:28:58;;;;;;;99.95;52.20;;;;;;;19.20;54.89;99186.31;4779570;29;20134;-63
2022/01/27 07:31:40;;;;;;;93.70;52.45;;;;;;;19.48;56.84;99181.19;4777620;29;20054;-63
2022/01/27 07:34:29;;;;;;;91.93;53.88;;;;;;;19.31;54.65;99176.09;4777704;29;20059;-64
2022/01/27 07:37:11;;;;;;;100.10;54.55;;;;;;;19.36;57.19;99171.44;4781806;29;20059;-64
2022/01/27 07:40:06;;;;;;;100.28;53.17;;;;;;;19.23;54.05;99175.69;4762815;30;20098;-64
2022/01/27 07:42:42;;;;;;;81.72;47.10;;;;;;;19.16;54.91;99163.91;4785258;29;21277;-63
2022/01/27 07:45:38;;;;;;;94.68;50.22;;;;;;;19.02;54.23;99156.00;4785457;29;20133;-66
2022/01/27 07:48:20;;;;;;;94.38;48.67;;;;;;;19.22;56.15;99150.50;4766547;29;20154;-63
2022/01/27 07:51:16;;;;;;;81.50;42.42;;;;;;;19.18;53.54;99151.59;4782147;29;20062;-62
2022/01/27 07:53:52;;;;;;;55.67;31.35;;;;;;;19.10;51.71;99153.81;4774031;29;20074;-62
2022/01/27 07:56:51;;;;;;;55.58;24.50;;;;;;;19.11;50.43;99140.66;4776502;29;20078;-63
2022/01/27 07:59:33;;;;;;;42.47;22.73;;;;;;;19.07;48.87;99146.16;4765613;29;20067;-60
2022/01/27 08:02:20;;;;;;;39.55;20.25;;;;;;;19.05;49.76;99140.19;4761132;29;20055;-62
2022/01/27 08:05:09;;;;;;;40.40;19.13;;;;;;;18.95;48.35;99134.63;4769659;29;20361;-62
2022/01/27 08:07:52;;;;;;;35.05;20.02;;;;;;;18.95;47.94;99133.78;4772509;30;20132;-62
2022/01/27 08:10:41;;;;;;;42.20;20.20;;;;;;;19.04;49.59;99133.25;4781566;29;20070;-64
2022/01/27 08:13:25;;;;;;;45.57;21.07;;;;;;;19.06;49.67;99132.25;4762091;29;20193;-62
2022/01/27 08:16:17;;;;;;;38.75;20.48;;;;;;;18.95;47.65;99123.34;4776611;29;20082;-63
2022/01/27 08:19:00;;;;;;;42.95;23.17;;;;;;;18.84;50.75;99112.66;4769714;30;20063;-64
2022/01/27 08:21:48;;;;;;;51.00;22.52;;;;;;;18.98;52.13;99107.50;4776514;29;20052;-63
2022/01/27 08:24:37;;;;;;;49.72;23.27;;;;;;;18.87;53.13;99104.66;4775217;29;20136;-65
2022/01/27 08:27:24;;;;;;;45.38;24.60;;;;;;;18.92;52.04;99107.84;4772685;29;20102;-63
2022/01/27 08:30:17;;;;;;;53.95;26.52;;;;;;;18.84;50.71;99100.44;4778061;29;20059;-63
2022/01/27 08:33:05;;;;;;;47.80;23.63;;;;;;;18.78;51.69;99095.56;4777632;29;20733;-63
2022/01/27 08:35:53;;;;;;;48.97;22.25;;;;;;;18.74;49.91;99094.09;4779172;29;20083;-63
2022/01/27 08:38:41;;;;;;;46.65;23.05;;;;;;;18.81;50.59;99092.81;4764456;30;20055;-62
2022/01/27 08:41:29;;;;;;;;;;;;;;;18.65;47.56;99100.66;4773312;30;20541;-62
2022/01/27 08:44:11;;;;;;;47.00;24.55;;;;;;;18.65;49.88;99087.63;4779028;30;20397;-64
2022/01/27 08:47:00;;;;;;;44.47;23.75;;;;;;;18.77;50.99;99085.22;4778214;30;20066;-63
2022/01/27 08:49:44;;;;;;;47.78;23.35;;;;;;;18.60;48.51;99084.41;4778012;29;20058;-65
2022/01/27 08:52:27;;;;;;;44.83;24.20;;;;;;;18.72;52.23;99075.91;4777976;29;20643;-64
2022/01/27 08:55:16;;;;;;;52.22;23.25;;;;;;;18.82;50.29;99077.97;4776013;29;20749;-64
2022/01/27 08:57:57;;;;;;;42.17;22.65;;;;;;;18.70;49.64;99077.75;4773282;29;20129;-64
2022/01/27 09:00:45;;;;;;;42.25;21.50;;;;;;;18.77;49.55;99069.56;4775463;29;20111;-64
2022/01/27 09:03:30;;;;;;;38.92;21.90;;;;;;;18.69;51.97;99068.22;4774174;30;20071;-65
2022/01/27 09:06:20;;;;;;;;;;;;;;;18.72;51.41;99075.91;4772131;29;20051;-65
2022/01/27 09:09:09;;;;;;;50.80;22.27;;;;;;;18.57;51.22;99074.16;4769149;29;20020;-65
2022/01/27 09:11:51;;;;;;;40.65;22.52;;;;;;;18.64;51.22;99078.09;4779157;29;20154;-65
2022/01/27 09:14:47;;;;;;;44.50;22.23;;;;;;;18.64;51.97;99072.88;4777265;30;20055;-64
2022/01/27 09:17:26;;;;;;;42.33;22.08;;;;;;;18.33;49.50;99072.88;4774437;30;20059;-65
2022/01/27 09:20:20;;;;;;;51.20;23.52;;;;;;;18.35;53.56;99060.59;4778152;29;20062;-65
2022/01/27 09:22:58;;;;;;;40.72;22.90;;;;;;;18.36;52.74;99062.25;4780891;29;20112;-65
2022/01/27 09:25:56;;;;;;;40.90;21.40;;;;;;;18.43;53.47;99055.78;4775411;29;20059;-65
2022/01/27 09:28:39;;;;;;;48.35;23.88;;;;;;;18.46;54.82;99052.16;4780720;29;20071;-65
2022/01/27 09:31:28;;;;;;;46.15;22.55;;;;;;;18.56;54.80;99045.50;4779377;29;20068;-65
2022/01/27 09:34:10;;;;;;;41.28;23.70;;;;;;;18.53;53.85;99046.50;4778499;29;20047;-65
2022/01/27 09:37:02;;;;;;;45.92;22.73;;;;;;;18.41;53.61;99047.22;4777666;29;20055;-64
2022/01/27 09:39:37;;;;;;;44.92;24.38;;;;;;;18.35;53.72;99039.72;4774102;30;20063;-66
2022/01/27 09:42:30;;;;;;;43.50;23.60;;;;;;;18.47;53.61;99051.22;4764860;29;20047;-65
2022/01/27 09:45:17;;;;;;;40.20;21.50;;;;;;;18.42;53.04;99048.06;4774261;29;20072;-66
2022/01/27 09:48:05;;;;;;;37.63;21.55;;;;;;;18.33;54.86;99038.97;4769673;29;20389;-64
2022/01/27 09:51:21;;;;;;;44.90;23.05;;;;;;;18.32;55.30;99039.88;4440736;29;9999602;-64
2022/01/27 09:54:02;;;;;;;39.47;22.95;;;;;;;18.34;54.15;99048.47;4776397;30;20059;-66
2022/01/27 09:56:56;;;;;;;44.30;20.48;;;;;;;18.30;52.10;99034.75;4776363;29;20140;-65
2022/01/27 09:59:38;;;;;;;36.58;19.08;;;;;;;18.33;54.59;99031.13;4761266;30;20484;-65
2022/01/27 10:02:33;;;;;;;34.85;19.80;;;;;;;18.26;53.81;99035.03;4770509;29;20060;-65
2022/01/27 10:05:09;;;;;;;42.00;22.35;;;;;;;18.22;54.26;99028.28;4769162;29;20465;-65
2022/01/27 10:07:50;;;;;;;42.92;21.70;;;;;;;18.12;52.97;99032.34;4776941;30;20134;-65
2022/01/27 10:10:48;;;;;;;37.38;21.23;;;;;;;18.01;53.60;99034.69;4775229;30;20071;-64
2022/01/27 10:13:43;;;;;;;39.67;19.58;;;;;;;17.97;51.50;99032.22;4772900;29;20063;-65
2022/01/27 10:16:41;;;;;;;41.60;19.55;;;;;;;18.09;51.79;99037.72;4772641;29;20166;-65
2022/01/27 10:19:31;;;;;;;37.25;20.48;;;;;;;17.96;53.60;99035.75;4769793;30;20230;-65
2022/01/27 10:22:17;;;;;;;;;;;;;;;17.95;54.10;99030.66;4773635;29;20190;-65
2022/01/27 10:25:20;;;;;;;33.83;20.95;;;;;;;17.86;53.26;99026.78;4777251;30;19936;-64
2022/01/27 10:28:12;;;;;;;38.92;23.45;;;;;;;17.77;54.38;99024.66;4775163;30;20044;-65
2022/01/27 10:31:18;;;;;;;34.13;18.92;;;;;;;17.82;55.00;99025.25;4778407;30;20060;-65
2022/01/27 10:34:01;;;;;;;38.72;19.02;;;;;;;17.75;54.87;99010.88;4776437;29;20421;-65
2022/01/27 10:37:02;;;;;;;35.05;18.75;;;;;;;17.71;54.45;99027.59;4775534;29;20051;-65
2022/01/27 10:39:44;;;;;;;;;;;;;;;17.73;54.80;99025.72;4776925;29;20516;-65
2022/01/27 10:42:38;;;;;;;33.45;18.08;;;;;;;17.71;54.97;99025.00;4780606;29;20043;-65
2022/01/27 10:45:26;;;;;;;;;;;;;;;17.67;54.74;99020.84;4778683;30;20051;-65
2022/01/27 10:48:24;;;;;;;34.97;18.42;;;;;;;17.63;54.51;99021.97;4774075;30;19933;-65
2022/01/27 10:51:17;;;;;;;33.78;19.25;;;;;;;17.55;56.26;99022.34;4776328;29;20144;-66
2022/01/27 10:54:15;;;;;;;37.38;19.27;;;;;;;17.49;55.48;99021.78;4777992;29;20120;-63
2022/01/27 10:57:17;;;;;;;34.88;19.60;;;;;;;17.45;56.44;99021.13;4780304;29;20063;-65
2022/01/27 11:00:05;;;;;;;38.78;19.83;;;;;;;17.39;56.79;99024.06;4775428;29;20059;-65
2022/01/27 11:03:04;;;;;;;38.35;18.48;;;;;;;17.26;56.76;99030.81;4776163;29;20055;-65
2022/01/27 11:05:54;;;;;;;36.30;18.20;;;;;;;17.31;58.00;99023.63;4777906;29;20051;-65
2022/01/27 11:08:39;;;;;;;35.28;18.67;;;;;;;17.18;57.49;99026.00;4775378;29;20059;-64
2022/01/27 11:11:28;;;;;;;33.70;17.58;;;;;;;17.16;57.89;99025.22;4778825;29;20373;-64
2022/01/27 11:14:10;;;;;;;37.47;18.40;;;;;;;17.09;57.82;99017.81;4771027;29;20063;-63
2022/01/27 11:17:05;;;;;;;41.50;20.05;;;;;;;17.10;60.53;99017.72;4765861;30;20059;-63
2022/01/27 11:22:47;;;;;;;37.35;19.63;;;;;;;17.13;60.68;99024.56;4783681;29;20065;-64
2022/01/27 11:28:21;;;;;;;37.40;18.02;;;;;;;17.04;62.18;99023.25;4789887;29;20055;-66
2022/01/27 11:31:33;;;;;;;29.27;18.63;;;;;;;16.83;61.54;99021.75;4775984;29;20085;-64
2022/01/27 11:34:15;;;;;;;29.80;19.10;;;;;;;16.92;62.62;99015.25;4762232;29;20449;-64
2022/01/27 11:37:05;;;;;;;32.25;18.10;;;;;;;16.78;62.37;99014.16;4774713;29;20447;-64
2022/01/27 11:40:07;;;;;;;34.95;20.20;;;;;;;16.83;61.90;99024.34;4774368;30;20083;-63
2022/01/27 11:43:13;;;;;;;30.17;18.88;;;;;;;16.67;61.27;99018.22;4792198;29;20399;-64
2022/01/27 11:45:58;;;;;;;34.33;19.05;;;;;;;16.70;59.31;99020.66;4790070;29;20142;-64
2022/01/27 11:48:46;;;;;;;41.28;19.25;;;;;;;16.64;59.92;99021.81;4779798;29;20468;-64
2022/01/27 11:51:28;;;;;;;32.85;17.92;;;;;;;16.55;62.47;99011.81;4777550;29;20159;-63
2022/01/27 11:54:26;;;;;;;30.30;17.73;;;;;;;16.32;64.14;99007.72;4773671;29;20051;-64
2022/01/27 11:57:08;;;;;;;44.17;18.33;;;;;;;16.36;63.89;99013.63;4774026;29;20082;-65
2022/01/27 12:00:18;;;;;;;39.67;18.63;;;;;;;16.39;64.91;99011.72;4768696;29;20889;-64
2022/01/27 12:03:01;;;;;;;33.03;17.27;;;;;;;16.33;66.41;99008.56;4775642;29;20162;-64
2022/01/27 12:06:20;;;;;;;34.03;17.55;;;;;;;16.27;66.99;99001.91;4775391;29;20063;-64
2022/01/27 12:09:25;;;;;;;29.98;16.70;;;;;;;16.13;68.89;99006.91;4747847;30;20047;-64
2022/01/27 12:12:24;;;;;;;32.92;16.92;;;;;;;16.06;67.33;99006.38;4777111;29;20154;-65
2022/01/27 12:15:13;;;;;;;29.38;16.52;;;;;;;15.91;68.29;99019.22;4773704;29;20361;-64
2022/01/27 12:18:35;;;;;;;30.40;17.17;;;;;;;15.84;70.62;99005.69;4777714;29;20059;-63
2022/01/27 12:21:39;;;;;;;33.90;16.55;;;;;;;15.69;72.65;98999.44;4767951;30;20053;-63
2022/01/27 12:24:27;;;;;;;;;;;;;;;15.47;74.07;98997.84;4774698;29;20074;-63
2022/01/27 12:27:19;;;;;;;37.95;18.98;;;;;;;15.51;75.54;99004.56;4775481;29;19934;-65
2022/01/27 12:30:26;;;;;;;49.78;19.15;;;;;;;15.41;76.30;99009.34;4758214;30;20544;-65
2022/01/27 12:33:10;;;;;;;37.28;19.55;;;;;;;15.30;78.51;99007.22;4776006;29;20124;-65
2022/01/27 12:36:00;;;;;;;34.65;19.27;;;;;;;15.15;80.45;99007.91;4780653;29;20653;-65
2022/01/27 12:38:42;;;;;;;60.20;22.02;;;;;;;14.94;80.96;99009.66;4775292;29;20063;-64
2022/01/27 12:41:31;;;;;;;43.25;22.15;;;;;;;14.80;83.57;99006.78;4777088;29;20059;-65
2022/01/27 12:44:13;;;;;;;61.63;26.55;;;;;;;14.79;86.41;99015.47;4777186;29;20055;-65
2022/01/27 12:47:19;;;;;;;56.53;27.70;;;;;;;14.77;87.58;99006.06;4783495;29;20458;-64
2022/01/27 12:50:13;;;;;;;65.10;32.25;;;;;;;14.65;91.31;99012.63;4761703;29;20127;-64
2022/01/27 12:53:09;;;;;;;65.30;30.17;;;;;;;14.57;91.67;99022.47;4774656;29;20059;-64
2022/01/27 12:56:00;;;;;;;53.83;30.20;;;;;;;14.47;92.57;99014.22;4766508;29;20344;-64
2022/01/27 12:59:14;;;;;;;70.75;31.63;;;;;;;14.36;94.26;99018.97;4705539;30;20048;-64
2022/01/27 13:01:57;;;;;;;67.13;33.10;;;;;;;14.25;95.30;99017.69;4776940;29;20051;-64
2022/01/27 13:04:46;;;;;;;66.07;31.23;;;;;;;14.10;97.16;99011.38;4775421;29;20059;-65
2022/01/27 13:07:40;;;;;;;62.13;31.10;;;;;;;14.12;97.36;99025.97;4774590;29;20581;-65
2022/01/27 13:10:23;;;;;;;78.75;31.88;;;;;;;13.96;98.62;99022.25;4759235;29;20055;-65
2022/01/27 13:13:27;;;;;;;69.95;31.23;;;;;;;13.88;100.00;99026.91;4771936;29;20066;-64
2022/01/27 13:16:13;;;;;;;73.55;31.67;;;;;;;13.85;100.00;99031.34;4774084;29;20066;-64
2022/01/27 13:19:21;;;;;;;70.22;32.00;;;;;;;13.79;100.00;99035.84;4779011;29;20066;-64
2022/01/27 13:22:05;;;;;;;80.93;33.28;;;;;;;13.71;100.00;99035.28;4772480;29;20051;-64
2022/01/27 13:24:55;;;;;;;62.88;31.63;;;;;;;13.61;100.00;99039.09;4771413;29;20075;-65
2022/01/27 13:27:37;;;;;;;69.60;31.92;;;;;;;13.57;100.00;99034.94;4776609;29;20058;-64
2022/01/27 13:30:26;;;;;;;75.32;32.63;;;;;;;13.53;100.00;99032.53;4775774;29;20051;-64
2022/01/27 13:33:11;;;;;;;71.97;33.72;;;;;;;13.51;100.00;99034.31;4769357;30;20066;-64
2022/01/27 13:36:00;;;;;;;63.97;32.13;;;;;;;13.47;100.00;99043.09;4760725;30;20674;-64